sensor_id;sensor_type;location;lat;lon;timestamp;temperature;humidity
70762;DHT22;58360;0.000;0.000;2023-02-01T00:00:00;6.90;90.50
70762;DHT22;58360;0.000;0.000;2023-02-01T00:02:26;6.90;90.80
70762;DHT22;58360;0.000;0.000;2023-02-01T00:04:51;6.90;90.70
70762;DHT22;58360;0.000;0.000;2023-02-01T00:07:17;7.10;90.40
70762;DHT22;58360;0.000;0.000;2023-02-01T00:09:43;7.10;90.20
70762;DHT22;58360;0.000;0.000;2023-02-01T00:12:08;7.20;90.20
70762;DHT22;58360;0.000;0.000;2023-02-01T00:14:34;7.20;90.10
70762;DHT22;58360;0.000;0.000;2023-02-01T00:17:05;7.30;90.00
70762;DHT22;58360;0.000;0.000;2023-02-01T00:19:31;7.30;89.90
70762;DHT22;58360;0.000;0.000;2023-02-01T00:21:57;7.30;90.00
70762;DHT22;58360;0.000;0.000;2023-02-01T00:24:23;7.30;90.00
70762;DHT22;58360;0.000;0.000;2023-02-01T00:26:48;7.30;90.20
70762;DHT22;58360;0.000;0.000;2023-02-01T00:29:16;7.20;90.20
70762;DHT22;58360;0.000;0.000;2023-02-01T00:31:42;7.30;90.10
70762;DHT22;58360;0.000;0.000;2023-02-01T00:34:14;7.30;90.00
70762;DHT22;58360;0.000;0.000;2023-02-01T00:36:42;7.30;90.00
70762;DHT22;58360;0.000;0.000;2023-02-01T00:39:08;7.40;89.70
70762;DHT22;58360;0.000;0.000;2023-02-01T00:41:34;7.30;89.70
70762;DHT22;58360;0.000;0.000;2023-02-01T00:44:00;7.40;89.50
70762;DHT22;58360;0.000;0.000;2023-02-01T00:46:27;7.30;89.40
70762;DHT22;58360;0.000;0.000;2023-02-01T00:48:53;7.10;90.00
70762;DHT22;58360;0.000;0.000;2023-02-01T00:51:21;6.90;90.10
70762;DHT22;58360;0.000;0.000;2023-02-01T00:53:48;6.90;90.40
70762;DHT22;58360;0.000;0.000;2023-02-01T00:56:14;6.80;90.30
70762;DHT22;58360;0.000;0.000;2023-02-01T00:58:39;6.90;90.20
70762;DHT22;58360;0.000;0.000;2023-02-01T01:03:38;6.90;90.10
70762;DHT22;58360;0.000;0.000;2023-02-01T01:06:07;6.70;90.10
70762;DHT22;58360;0.000;0.000;2023-02-01T01:08:33;6.70;90.20
70762;DHT22;58360;0.000;0.000;2023-02-01T01:11:07;6.70;90.20
70762;DHT22;58360;0.000;0.000;2023-02-01T01:13:34;6.80;89.70
70762;DHT22;58360;0.000;0.000;2023-02-01T01:16:01;6.90;89.30
70762;DHT22;58360;0.000;0.000;2023-02-01T01:18:29;7.00;88.30
70762;DHT22;58360;0.000;0.000;2023-02-01T01:20:55;7.00;88.10
70762;DHT22;58360;0.000;0.000;2023-02-01T01:23:21;6.90;88.50
70762;DHT22;58360;0.000;0.000;2023-02-01T01:25:46;6.70;89.10
70762;DHT22;58360;0.000;0.000;2023-02-01T01:28:12;6.70;89.00
70762;DHT22;58360;0.000;0.000;2023-02-01T01:30:38;6.70;88.60
70762;DHT22;58360;0.000;0.000;2023-02-01T01:33:03;6.70;88.40
70762;DHT22;58360;0.000;0.000;2023-02-01T01:35:30;6.70;88.20
70762;DHT22;58360;0.000;0.000;2023-02-01T01:37:56;6.70;88.10
70762;DHT22;58360;0.000;0.000;2023-02-01T01:40:22;6.70;88.00
70762;DHT22;58360;0.000;0.000;2023-02-01T01:42:48;6.70;87.60
70762;DHT22;58360;0.000;0.000;2023-02-01T01:47:52;6.50;88.20
70762;DHT22;58360;0.000;0.000;2023-02-01T01:50:21;6.50;88.10
70762;DHT22;58360;0.000;0.000;2023-02-01T01:52:49;6.50;88.10
70762;DHT22;58360;0.000;0.000;2023-02-01T01:55:18;6.50;87.90
70762;DHT22;58360;0.000;0.000;2023-02-01T01:57:50;6.40;88.10
70762;DHT22;58360;0.000;0.000;2023-02-01T02:00:19;6.40;88.20
70762;DHT22;58360;0.000;0.000;2023-02-01T02:02:47;6.30;88.40
70762;DHT22;58360;0.000;0.000;2023-02-01T02:05:15;6.20;88.80
70762;DHT22;58360;0.000;0.000;2023-02-01T02:07:45;6.20;88.60
70762;DHT22;58360;0.000;0.000;2023-02-01T02:10:12;6.30;88.10
70762;DHT22;58360;0.000;0.000;2023-02-01T02:12:40;6.10;88.60
70762;DHT22;58360;0.000;0.000;2023-02-01T02:15:08;6.10;88.80
70762;DHT22;58360;0.000;0.000;2023-02-01T02:34:28;6.10;87.40
70762;DHT22;58360;0.000;0.000;2023-02-01T02:42:25;6.20;86.70
70762;DHT22;58360;0.000;0.000;2023-02-01T02:45:27;6.10;86.40
70762;DHT22;58360;0.000;0.000;2023-02-01T02:48:28;6.10;86.20
70762;DHT22;58360;0.000;0.000;2023-02-01T02:51:25;6.10;86.20
70762;DHT22;58360;0.000;0.000;2023-02-01T02:54:28;6.20;85.80
70762;DHT22;58360;0.000;0.000;2023-02-01T02:57:35;6.10;86.00
70762;DHT22;58360;0.000;0.000;2023-02-01T03:00:23;6.10;85.90
70762;DHT22;58360;0.000;0.000;2023-02-01T03:03:08;6.20;85.40
70762;DHT22;58360;0.000;0.000;2023-02-01T03:05:53;6.10;85.70
70762;DHT22;58360;0.000;0.000;2023-02-01T03:08:24;6.10;85.70
70762;DHT22;58360;0.000;0.000;2023-02-01T03:16:22;6.00;85.90
70762;DHT22;58360;0.000;0.000;2023-02-01T03:19:00;6.10;85.40
70762;DHT22;58360;0.000;0.000;2023-02-01T03:21:42;6.00;85.50
70762;DHT22;58360;0.000;0.000;2023-02-01T03:24:16;6.20;85.00
70762;DHT22;58360;0.000;0.000;2023-02-01T03:26:51;6.30;84.60
70762;DHT22;58360;0.000;0.000;2023-02-01T03:29:23;6.20;84.40
70762;DHT22;58360;0.000;0.000;2023-02-01T03:31:49;6.20;84.80
70762;DHT22;58360;0.000;0.000;2023-02-01T03:34:16;6.20;84.50
70762;DHT22;58360;0.000;0.000;2023-02-01T03:36:49;6.20;84.20
70762;DHT22;58360;0.000;0.000;2023-02-01T03:39:27;6.20;84.30
70762;DHT22;58360;0.000;0.000;2023-02-01T03:43:04;6.20;84.90
70762;DHT22;58360;0.000;0.000;2023-02-01T03:45:18;6.30;83.90
70762;DHT22;58360;0.000;0.000;2023-02-01T03:47:49;6.40;83.20
70762;DHT22;58360;0.000;0.000;2023-02-01T03:50:18;6.30;83.60
70762;DHT22;58360;0.000;0.000;2023-02-01T03:53:09;6.20;84.00
70762;DHT22;58360;0.000;0.000;2023-02-01T03:55:33;6.20;84.20
70762;DHT22;58360;0.000;0.000;2023-02-01T03:58:41;6.30;84.00
70762;DHT22;58360;0.000;0.000;2023-02-01T04:01:01;6.30;83.70
70762;DHT22;58360;0.000;0.000;2023-02-01T04:03:27;6.20;84.10
70762;DHT22;58360;0.000;0.000;2023-02-01T04:05:53;6.00;84.70
70762;DHT22;58360;0.000;0.000;2023-02-01T04:08:20;6.20;84.60
70762;DHT22;58360;0.000;0.000;2023-02-01T04:10:46;6.20;84.50
70762;DHT22;58360;0.000;0.000;2023-02-01T04:13:12;6.20;84.10
70762;DHT22;58360;0.000;0.000;2023-02-01T04:15:38;6.30;84.10
70762;DHT22;58360;0.000;0.000;2023-02-01T04:18:04;6.20;84.40
70762;DHT22;58360;0.000;0.000;2023-02-01T04:20:30;6.10;85.30
70762;DHT22;58360;0.000;0.000;2023-02-01T04:22:56;6.10;85.20
70762;DHT22;58360;0.000;0.000;2023-02-01T04:25:21;6.10;85.00
70762;DHT22;58360;0.000;0.000;2023-02-01T04:27:47;6.20;85.10
70762;DHT22;58360;0.000;0.000;2023-02-01T04:30:13;6.00;85.30
70762;DHT22;58360;0.000;0.000;2023-02-01T04:32:39;6.10;85.40
70762;DHT22;58360;0.000;0.000;2023-02-01T04:35:06;6.20;85.00
70762;DHT22;58360;0.000;0.000;2023-02-01T04:37:32;6.10;85.50
70762;DHT22;58360;0.000;0.000;2023-02-01T04:39:58;6.10;85.10
70762;DHT22;58360;0.000;0.000;2023-02-01T04:42:24;6.20;85.00
70762;DHT22;58360;0.000;0.000;2023-02-01T04:44:49;6.20;85.00
70762;DHT22;58360;0.000;0.000;2023-02-01T04:47:15;6.10;85.20
70762;DHT22;58360;0.000;0.000;2023-02-01T04:49:41;6.20;85.10
70762;DHT22;58360;0.000;0.000;2023-02-01T04:52:07;6.00;85.90
70762;DHT22;58360;0.000;0.000;2023-02-01T04:54:32;6.20;85.40
70762;DHT22;58360;0.000;0.000;2023-02-01T04:56:58;6.20;85.00
70762;DHT22;58360;0.000;0.000;2023-02-01T04:59:24;6.10;85.30
70762;DHT22;58360;0.000;0.000;2023-02-01T05:01:50;6.10;85.50
70762;DHT22;58360;0.000;0.000;2023-02-01T05:04:15;6.20;85.50
70762;DHT22;58360;0.000;0.000;2023-02-01T05:06:44;6.20;85.40
70762;DHT22;58360;0.000;0.000;2023-02-01T05:09:09;6.00;86.00
70762;DHT22;58360;0.000;0.000;2023-02-01T05:11:35;6.10;85.60
70762;DHT22;58360;0.000;0.000;2023-02-01T05:14:19;6.10;85.70
70762;DHT22;58360;0.000;0.000;2023-02-01T05:16:45;6.10;85.70
70762;DHT22;58360;0.000;0.000;2023-02-01T05:19:10;6.10;86.10
70762;DHT22;58360;0.000;0.000;2023-02-01T05:21:36;6.10;86.00
70762;DHT22;58360;0.000;0.000;2023-02-01T05:24:02;6.10;85.70
70762;DHT22;58360;0.000;0.000;2023-02-01T05:26:42;6.10;85.80
70762;DHT22;58360;0.000;0.000;2023-02-01T05:29:09;6.10;85.70
70762;DHT22;58360;0.000;0.000;2023-02-01T05:31:35;6.10;85.80
70762;DHT22;58360;0.000;0.000;2023-02-01T05:34:01;6.10;85.80
70762;DHT22;58360;0.000;0.000;2023-02-01T05:36:27;6.10;86.00
70762;DHT22;58360;0.000;0.000;2023-02-01T05:38:52;6.00;86.20
70762;DHT22;58360;0.000;0.000;2023-02-01T05:41:18;6.00;86.00
70762;DHT22;58360;0.000;0.000;2023-02-01T05:43:44;6.20;85.60
70762;DHT22;58360;0.000;0.000;2023-02-01T05:46:09;6.10;85.70
70762;DHT22;58360;0.000;0.000;2023-02-01T05:48:40;6.10;85.80
70762;DHT22;58360;0.000;0.000;2023-02-01T05:51:06;6.10;85.40
70762;DHT22;58360;0.000;0.000;2023-02-01T05:53:32;6.10;85.60
70762;DHT22;58360;0.000;0.000;2023-02-01T05:55:58;6.00;86.20
70762;DHT22;58360;0.000;0.000;2023-02-01T05:58:24;5.90;86.50
70762;DHT22;58360;0.000;0.000;2023-02-01T06:00:49;6.00;86.20
70762;DHT22;58360;0.000;0.000;2023-02-01T06:03:15;5.90;86.30
70762;DHT22;58360;0.000;0.000;2023-02-01T06:05:43;6.00;86.60
70762;DHT22;58360;0.000;0.000;2023-02-01T06:08:09;6.00;86.00
70762;DHT22;58360;0.000;0.000;2023-02-01T06:10:35;6.00;86.40
70762;DHT22;58360;0.000;0.000;2023-02-01T06:13:00;6.00;86.30
70762;DHT22;58360;0.000;0.000;2023-02-01T06:15:28;5.90;86.50
70762;DHT22;58360;0.000;0.000;2023-02-01T06:17:54;6.10;86.10
70762;DHT22;58360;0.000;0.000;2023-02-01T06:20:20;6.00;86.20
70762;DHT22;58360;0.000;0.000;2023-02-01T06:22:45;5.90;86.60
70762;DHT22;58360;0.000;0.000;2023-02-01T06:25:11;6.00;86.10
70762;DHT22;58360;0.000;0.000;2023-02-01T06:27:37;6.10;85.80
70762;DHT22;58360;0.000;0.000;2023-02-01T06:30:05;6.00;86.00
70762;DHT22;58360;0.000;0.000;2023-02-01T06:32:30;6.00;85.80
70762;DHT22;58360;0.000;0.000;2023-02-01T06:34:56;6.00;86.20
70762;DHT22;58360;0.000;0.000;2023-02-01T06:37:23;6.00;86.00
70762;DHT22;58360;0.000;0.000;2023-02-01T06:39:50;5.90;86.40
70762;DHT22;58360;0.000;0.000;2023-02-01T06:42:16;5.90;86.10
70762;DHT22;58360;0.000;0.000;2023-02-01T06:44:42;6.00;86.10
70762;DHT22;58360;0.000;0.000;2023-02-01T06:47:08;5.90;86.30
70762;DHT22;58360;0.000;0.000;2023-02-01T06:49:33;5.90;86.00
70762;DHT22;58360;0.000;0.000;2023-02-01T06:51:59;6.00;85.90
70762;DHT22;58360;0.000;0.000;2023-02-01T06:54:26;5.90;86.20
70762;DHT22;58360;0.000;0.000;2023-02-01T06:56:52;5.90;86.20
70762;DHT22;58360;0.000;0.000;2023-02-01T06:59:17;5.80;86.30
70762;DHT22;58360;0.000;0.000;2023-02-01T07:01:43;5.80;86.90
70762;DHT22;58360;0.000;0.000;2023-02-01T07:04:11;6.00;86.30
70762;DHT22;58360;0.000;0.000;2023-02-01T07:06:38;6.00;86.00
70762;DHT22;58360;0.000;0.000;2023-02-01T07:09:04;6.00;86.20
70762;DHT22;58360;0.000;0.000;2023-02-01T07:11:29;6.00;85.70
70762;DHT22;58360;0.000;0.000;2023-02-01T07:13:56;6.10;85.80
70762;DHT22;58360;0.000;0.000;2023-02-01T07:16:22;6.00;86.00
70762;DHT22;58360;0.000;0.000;2023-02-01T07:18:50;6.10;85.80
70762;DHT22;58360;0.000;0.000;2023-02-01T07:21:16;6.00;85.70
70762;DHT22;58360;0.000;0.000;2023-02-01T07:23:42;6.10;86.00
70762;DHT22;58360;0.000;0.000;2023-02-01T07:26:10;6.10;85.50
70762;DHT22;58360;0.000;0.000;2023-02-01T07:28:37;6.10;85.70
70762;DHT22;58360;0.000;0.000;2023-02-01T07:31:09;6.00;85.90
70762;DHT22;58360;0.000;0.000;2023-02-01T07:33:35;6.10;86.00
70762;DHT22;58360;0.000;0.000;2023-02-01T07:36:05;6.20;85.30
70762;DHT22;58360;0.000;0.000;2023-02-01T07:38:32;6.10;85.50
70762;DHT22;58360;0.000;0.000;2023-02-01T07:40:59;6.10;85.80
70762;DHT22;58360;0.000;0.000;2023-02-01T07:43:26;5.90;86.40
70762;DHT22;58360;0.000;0.000;2023-02-01T07:45:53;6.00;86.50
70762;DHT22;58360;0.000;0.000;2023-02-01T07:48:19;6.10;86.00
70762;DHT22;58360;0.000;0.000;2023-02-01T07:50:45;6.10;85.80
70762;DHT22;58360;0.000;0.000;2023-02-01T07:53:11;6.20;85.70
70762;DHT22;58360;0.000;0.000;2023-02-01T07:55:40;6.20;85.70
70762;DHT22;58360;0.000;0.000;2023-02-01T07:58:06;6.20;85.70
70762;DHT22;58360;0.000;0.000;2023-02-01T08:00:32;6.10;85.90
70762;DHT22;58360;0.000;0.000;2023-02-01T08:03:16;6.20;85.70
70762;DHT22;58360;0.000;0.000;2023-02-01T08:05:42;6.40;85.40
70762;DHT22;58360;0.000;0.000;2023-02-01T08:08:07;6.40;85.00
70762;DHT22;58360;0.000;0.000;2023-02-01T08:10:33;6.50;84.90
70762;DHT22;58360;0.000;0.000;2023-02-01T08:13:01;6.50;84.90
70762;DHT22;58360;0.000;0.000;2023-02-01T08:15:28;6.60;84.90
70762;DHT22;58360;0.000;0.000;2023-02-01T08:17:54;6.60;84.90
70762;DHT22;58360;0.000;0.000;2023-02-01T08:20:21;6.70;84.50
70762;DHT22;58360;0.000;0.000;2023-02-01T08:22:50;6.70;84.30
70762;DHT22;58360;0.000;0.000;2023-02-01T08:25:16;6.80;84.10
70762;DHT22;58360;0.000;0.000;2023-02-01T08:27:42;6.80;83.90
70762;DHT22;58360;0.000;0.000;2023-02-01T08:30:08;6.90;84.00
70762;DHT22;58360;0.000;0.000;2023-02-01T08:32:34;6.90;83.80
70762;DHT22;58360;0.000;0.000;2023-02-01T08:35:01;6.90;84.00
70762;DHT22;58360;0.000;0.000;2023-02-01T08:37:26;6.90;83.90
70762;DHT22;58360;0.000;0.000;2023-02-01T08:39:52;6.90;83.90
70762;DHT22;58360;0.000;0.000;2023-02-01T08:42:18;7.00;83.50
70762;DHT22;58360;0.000;0.000;2023-02-01T08:45:03;7.10;83.30
70762;DHT22;58360;0.000;0.000;2023-02-01T08:47:29;7.10;83.40
70762;DHT22;58360;0.000;0.000;2023-02-01T08:49:55;7.20;83.10
70762;DHT22;58360;0.000;0.000;2023-02-01T08:52:21;7.20;82.70
70762;DHT22;58360;0.000;0.000;2023-02-01T08:54:46;7.20;83.00
70762;DHT22;58360;0.000;0.000;2023-02-01T08:57:12;7.30;82.80
70762;DHT22;58360;0.000;0.000;2023-02-01T08:59:38;7.40;82.60
70762;DHT22;58360;0.000;0.000;2023-02-01T09:02:04;7.40;82.20
70762;DHT22;58360;0.000;0.000;2023-02-01T09:04:30;7.50;81.90
70762;DHT22;58360;0.000;0.000;2023-02-01T09:06:55;7.50;81.90
70762;DHT22;58360;0.000;0.000;2023-02-01T09:09:22;7.60;81.40
70762;DHT22;58360;0.000;0.000;2023-02-01T09:11:48;7.70;81.30
70762;DHT22;58360;0.000;0.000;2023-02-01T09:14:16;7.70;81.30
70762;DHT22;58360;0.000;0.000;2023-02-01T09:16:41;7.80;80.80
70762;DHT22;58360;0.000;0.000;2023-02-01T09:19:07;7.80;81.20
70762;DHT22;58360;0.000;0.000;2023-02-01T09:21:33;7.80;80.80
70762;DHT22;58360;0.000;0.000;2023-02-01T09:23:59;7.90;80.70
70762;DHT22;58360;0.000;0.000;2023-02-01T09:26:24;7.90;80.30
70762;DHT22;58360;0.000;0.000;2023-02-01T09:28:51;8.00;79.90
70762;DHT22;58360;0.000;0.000;2023-02-01T09:31:16;8.10;80.00
70762;DHT22;58360;0.000;0.000;2023-02-01T09:33:42;8.00;80.10
70762;DHT22;58360;0.000;0.000;2023-02-01T09:36:08;8.10;79.90
70762;DHT22;58360;0.000;0.000;2023-02-01T09:38:33;8.10;80.10
70762;DHT22;58360;0.000;0.000;2023-02-01T09:40:59;8.00;80.00
70762;DHT22;58360;0.000;0.000;2023-02-01T09:43:33;8.10;79.90
70762;DHT22;58360;0.000;0.000;2023-02-01T09:46:37;8.20;79.60
70762;DHT22;58360;0.000;0.000;2023-02-01T09:49:09;8.20;79.30
70762;DHT22;58360;0.000;0.000;2023-02-01T09:51:38;8.30;79.30
70762;DHT22;58360;0.000;0.000;2023-02-01T09:56:57;8.40;79.10
70762;DHT22;58360;0.000;0.000;2023-02-01T10:02:05;8.40;78.50
70762;DHT22;58360;0.000;0.000;2023-02-01T10:04:36;8.30;78.40
70762;DHT22;58360;0.000;0.000;2023-02-01T10:26:37;8.70;77.00
70762;DHT22;58360;0.000;0.000;2023-02-01T10:29:14;8.60;77.10
70762;DHT22;58360;0.000;0.000;2023-02-01T10:31:41;8.80;76.90
70762;DHT22;58360;0.000;0.000;2023-02-01T10:34:27;8.90;76.20
70762;DHT22;58360;0.000;0.000;2023-02-01T10:39:45;9.00;76.10
70762;DHT22;58360;0.000;0.000;2023-02-01T10:42:11;9.10;75.30
70762;DHT22;58360;0.000;0.000;2023-02-01T10:44:42;9.10;75.20
70762;DHT22;58360;0.000;0.000;2023-02-01T10:47:10;9.30;74.50
70762;DHT22;58360;0.000;0.000;2023-02-01T10:52:18;9.60;72.60
70762;DHT22;58360;0.000;0.000;2023-02-01T10:54:46;9.60;73.30
70762;DHT22;58360;0.000;0.000;2023-02-01T10:57:25;9.60;73.00
70762;DHT22;58360;0.000;0.000;2023-02-01T10:59:53;9.60;73.10
70762;DHT22;58360;0.000;0.000;2023-02-01T11:02:29;9.70;72.10
70762;DHT22;58360;0.000;0.000;2023-02-01T11:07:28;9.70;71.90
70762;DHT22;58360;0.000;0.000;2023-02-01T11:09:55;9.80;71.70
70762;DHT22;58360;0.000;0.000;2023-02-01T11:12:32;9.80;71.90
70762;DHT22;58360;0.000;0.000;2023-02-01T11:17:49;10.30;69.70
70762;DHT22;58360;0.000;0.000;2023-02-01T11:20:40;10.50;68.60
70762;DHT22;58360;0.000;0.000;2023-02-01T11:23:15;10.60;68.00
70762;DHT22;58360;0.000;0.000;2023-02-01T11:28:15;10.80;67.90
70762;DHT22;58360;0.000;0.000;2023-02-01T11:30:43;10.80;66.40
70762;DHT22;58360;0.000;0.000;2023-02-01T11:33:19;10.80;67.00
70762;DHT22;58360;0.000;0.000;2023-02-01T11:35:47;11.00;66.60
70762;DHT22;58360;0.000;0.000;2023-02-01T11:39:25;11.10;66.10
70762;DHT22;58360;0.000;0.000;2023-02-01T11:41:31;11.20;65.70
70762;DHT22;58360;0.000;0.000;2023-02-01T11:44:00;11.20;64.80
70762;DHT22;58360;0.000;0.000;2023-02-01T11:46:31;11.10;65.30
70762;DHT22;58360;0.000;0.000;2023-02-01T11:51:50;11.00;66.20
70762;DHT22;58360;0.000;0.000;2023-02-01T12:00:02;11.10;65.70
70762;DHT22;58360;0.000;0.000;2023-02-01T12:06:27;10.80;66.10
70762;DHT22;58360;0.000;0.000;2023-02-01T12:17:33;10.90;65.00
70762;DHT22;58360;0.000;0.000;2023-02-01T12:34:13;10.80;65.10
70762;DHT22;58360;0.000;0.000;2023-02-01T12:36:47;10.70;64.70
70762;DHT22;58360;0.000;0.000;2023-02-01T12:39:36;10.70;65.10
70762;DHT22;58360;0.000;0.000;2023-02-01T12:42:16;10.90;64.70
70762;DHT22;58360;0.000;0.000;2023-02-01T12:44:46;11.00;63.70
70762;DHT22;58360;0.000;0.000;2023-02-01T12:47:35;10.90;63.50
70762;DHT22;58360;0.000;0.000;2023-02-01T12:52:48;10.80;64.60
70762;DHT22;58360;0.000;0.000;2023-02-01T13:03:40;10.80;64.30
70762;DHT22;58360;0.000;0.000;2023-02-01T13:06:17;10.70;64.40
70762;DHT22;58360;0.000;0.000;2023-02-01T13:08:49;10.70;64.60
70762;DHT22;58360;0.000;0.000;2023-02-01T13:14:28;10.80;64.40
70762;DHT22;58360;0.000;0.000;2023-02-01T13:16:47;10.80;64.60
70762;DHT22;58360;0.000;0.000;2023-02-01T13:19:37;10.90;64.50
70762;DHT22;58360;0.000;0.000;2023-02-01T13:22:14;11.00;63.60
70762;DHT22;58360;0.000;0.000;2023-02-01T13:24:48;11.10;64.30
70762;DHT22;58360;0.000;0.000;2023-02-01T13:27:16;11.10;64.10
70762;DHT22;58360;0.000;0.000;2023-02-01T13:30:36;11.10;64.40
70762;DHT22;58360;0.000;0.000;2023-02-01T13:35:51;11.10;64.00
70762;DHT22;58360;0.000;0.000;2023-02-01T13:41:32;11.00;64.10
70762;DHT22;58360;0.000;0.000;2023-02-01T13:44:04;10.80;65.40
70762;DHT22;58360;0.000;0.000;2023-02-01T13:46:42;10.80;65.30
70762;DHT22;58360;0.000;0.000;2023-02-01T13:49:36;10.80;65.70
70762;DHT22;58360;0.000;0.000;2023-02-01T13:52:04;10.90;65.40
70762;DHT22;58360;0.000;0.000;2023-02-01T13:54:33;11.00;65.30
70762;DHT22;58360;0.000;0.000;2023-02-01T13:57:01;11.00;65.20
70762;DHT22;58360;0.000;0.000;2023-02-01T13:59:51;11.00;65.60
70762;DHT22;58360;0.000;0.000;2023-02-01T14:05:10;11.00;65.70
70762;DHT22;58360;0.000;0.000;2023-02-01T14:07:36;11.00;65.30
70762;DHT22;58360;0.000;0.000;2023-02-01T14:13:37;10.90;65.80
70762;DHT22;58360;0.000;0.000;2023-02-01T14:18:49;11.00;66.00
70762;DHT22;58360;0.000;0.000;2023-02-01T14:23:46;10.90;66.20
70762;DHT22;58360;0.000;0.000;2023-02-01T14:26:42;10.90;66.60
70762;DHT22;58360;0.000;0.000;2023-02-01T14:29:50;10.80;67.00
70762;DHT22;58360;0.000;0.000;2023-02-01T14:32:21;10.70;66.70
70762;DHT22;58360;0.000;0.000;2023-02-01T14:37:33;10.60;66.70
70762;DHT22;58360;0.000;0.000;2023-02-01T14:47:44;10.50;67.70
70762;DHT22;58360;0.000;0.000;2023-02-01T14:55:53;10.40;67.80
70762;DHT22;58360;0.000;0.000;2023-02-01T15:00:53;10.40;68.10
70762;DHT22;58360;0.000;0.000;2023-02-01T15:09:02;10.30;68.60
70762;DHT22;58360;0.000;0.000;2023-02-01T15:11:28;10.20;68.60
70762;DHT22;58360;0.000;0.000;2023-02-01T15:13:54;10.30;68.60
70762;DHT22;58360;0.000;0.000;2023-02-01T15:16:24;10.20;68.80
70762;DHT22;58360;0.000;0.000;2023-02-01T15:19:05;10.30;68.60
70762;DHT22;58360;0.000;0.000;2023-02-01T15:21:31;10.30;68.60
70762;DHT22;58360;0.000;0.000;2023-02-01T15:24:19;10.30;68.90
70762;DHT22;58360;0.000;0.000;2023-02-01T15:26:45;10.30;68.90
70762;DHT22;58360;0.000;0.000;2023-02-01T15:29:12;10.30;68.60
70762;DHT22;58360;0.000;0.000;2023-02-01T15:31:44;10.30;68.50
70762;DHT22;58360;0.000;0.000;2023-02-01T15:34:11;10.30;68.80
70762;DHT22;58360;0.000;0.000;2023-02-01T15:36:37;10.30;69.30
70762;DHT22;58360;0.000;0.000;2023-02-01T15:39:19;10.20;69.40
70762;DHT22;58360;0.000;0.000;2023-02-01T15:41:51;10.10;69.80
70762;DHT22;58360;0.000;0.000;2023-02-01T15:46:54;10.20;70.20
70762;DHT22;58360;0.000;0.000;2023-02-01T15:49:25;10.10;70.40
70762;DHT22;58360;0.000;0.000;2023-02-01T15:51:51;10.10;70.20
70762;DHT22;58360;0.000;0.000;2023-02-01T15:54:27;10.10;70.70
70762;DHT22;58360;0.000;0.000;2023-02-01T15:56:57;10.10;70.40
70762;DHT22;58360;0.000;0.000;2023-02-01T15:59:28;10.10;70.60
70762;DHT22;58360;0.000;0.000;2023-02-01T16:01:55;10.10;70.50
70762;DHT22;58360;0.000;0.000;2023-02-01T16:04:26;10.20;70.70
70762;DHT22;58360;0.000;0.000;2023-02-01T16:07:00;10.30;70.30
70762;DHT22;58360;0.000;0.000;2023-02-01T16:09:39;10.10;70.80
70762;DHT22;58360;0.000;0.000;2023-02-01T16:12:32;10.10;71.00
70762;DHT22;58360;0.000;0.000;2023-02-01T16:15:01;10.10;71.00
70762;DHT22;58360;0.000;0.000;2023-02-01T16:17:27;10.10;71.40
70762;DHT22;58360;0.000;0.000;2023-02-01T16:19:53;10.10;71.50
70762;DHT22;58360;0.000;0.000;2023-02-01T16:22:19;10.10;71.50
70762;DHT22;58360;0.000;0.000;2023-02-01T16:24:45;10.10;71.40
70762;DHT22;58360;0.000;0.000;2023-02-01T16:27:11;10.00;72.00
70762;DHT22;58360;0.000;0.000;2023-02-01T16:29:36;10.10;72.00
70762;DHT22;58360;0.000;0.000;2023-02-01T16:32:02;10.10;72.20
70762;DHT22;58360;0.000;0.000;2023-02-01T16:34:29;10.00;72.10
70762;DHT22;58360;0.000;0.000;2023-02-01T16:36:55;10.10;71.80
70762;DHT22;58360;0.000;0.000;2023-02-01T16:39:23;10.10;71.60
70762;DHT22;58360;0.000;0.000;2023-02-01T16:41:49;10.00;71.90
70762;DHT22;58360;0.000;0.000;2023-02-01T16:44:15;10.00;71.90
70762;DHT22;58360;0.000;0.000;2023-02-01T16:46:46;9.90;72.40
70762;DHT22;58360;0.000;0.000;2023-02-01T16:49:40;9.90;72.60
70762;DHT22;58360;0.000;0.000;2023-02-01T16:52:08;10.00;73.10
70762;DHT22;58360;0.000;0.000;2023-02-01T16:54:37;10.00;72.50
70762;DHT22;58360;0.000;0.000;2023-02-01T16:57:02;10.00;72.40
70762;DHT22;58360;0.000;0.000;2023-02-01T16:59:28;10.00;72.70
70762;DHT22;58360;0.000;0.000;2023-02-01T17:01:54;10.00;72.80
70762;DHT22;58360;0.000;0.000;2023-02-01T17:04:20;9.90;73.00
70762;DHT22;58360;0.000;0.000;2023-02-01T17:06:46;9.90;72.70
70762;DHT22;58360;0.000;0.000;2023-02-01T17:09:14;9.90;73.10
70762;DHT22;58360;0.000;0.000;2023-02-01T17:11:40;10.00;73.10
70762;DHT22;58360;0.000;0.000;2023-02-01T17:14:17;10.00;72.40
70762;DHT22;58360;0.000;0.000;2023-02-01T17:16:44;10.10;72.10
70762;DHT22;58360;0.000;0.000;2023-02-01T17:19:13;10.10;72.00
70762;DHT22;58360;0.000;0.000;2023-02-01T17:21:52;10.10;72.10
70762;DHT22;58360;0.000;0.000;2023-02-01T17:24:22;10.10;72.10
70762;DHT22;58360;0.000;0.000;2023-02-01T17:26:48;10.10;72.50
70762;DHT22;58360;0.000;0.000;2023-02-01T17:29:16;10.00;72.20
70762;DHT22;58360;0.000;0.000;2023-02-01T17:31:44;10.00;72.30
70762;DHT22;58360;0.000;0.000;2023-02-01T17:34:11;10.00;72.60
70762;DHT22;58360;0.000;0.000;2023-02-01T17:36:38;10.00;72.70
70762;DHT22;58360;0.000;0.000;2023-02-01T17:39:08;10.00;72.50
70762;DHT22;58360;0.000;0.000;2023-02-01T17:41:34;9.90;72.70
70762;DHT22;58360;0.000;0.000;2023-02-01T17:44:00;9.90;72.70
70762;DHT22;58360;0.000;0.000;2023-02-01T17:46:26;9.90;72.90
70762;DHT22;58360;0.000;0.000;2023-02-01T17:48:53;9.80;73.40
70762;DHT22;58360;0.000;0.000;2023-02-01T17:51:24;9.80;73.40
70762;DHT22;58360;0.000;0.000;2023-02-01T17:53:51;9.80;73.70
70762;DHT22;58360;0.000;0.000;2023-02-01T17:56:21;9.90;73.70
70762;DHT22;58360;0.000;0.000;2023-02-01T17:58:47;9.80;73.60
70762;DHT22;58360;0.000;0.000;2023-02-01T18:01:15;9.90;73.90
70762;DHT22;58360;0.000;0.000;2023-02-01T18:03:42;9.90;74.50
70762;DHT22;58360;0.000;0.000;2023-02-01T18:06:21;9.90;74.10
70762;DHT22;58360;0.000;0.000;2023-02-01T18:08:47;9.80;74.50
70762;DHT22;58360;0.000;0.000;2023-02-01T18:11:16;9.80;74.60
70762;DHT22;58360;0.000;0.000;2023-02-01T18:13:43;9.70;75.00
70762;DHT22;58360;0.000;0.000;2023-02-01T18:16:35;9.80;75.00
70762;DHT22;58360;0.000;0.000;2023-02-01T18:19:02;9.70;75.30
70762;DHT22;58360;0.000;0.000;2023-02-01T18:21:41;9.70;75.70
70762;DHT22;58360;0.000;0.000;2023-02-01T18:24:13;9.70;76.00
70762;DHT22;58360;0.000;0.000;2023-02-01T18:26:40;9.80;75.50
70762;DHT22;58360;0.000;0.000;2023-02-01T18:29:06;9.80;75.30
70762;DHT22;58360;0.000;0.000;2023-02-01T18:31:33;9.90;75.30
70762;DHT22;58360;0.000;0.000;2023-02-01T18:33:59;9.80;75.00
70762;DHT22;58360;0.000;0.000;2023-02-01T18:36:26;9.80;75.30
70762;DHT22;58360;0.000;0.000;2023-02-01T18:38:52;9.80;75.60
70762;DHT22;58360;0.000;0.000;2023-02-01T18:41:21;9.70;75.70
70762;DHT22;58360;0.000;0.000;2023-02-01T18:43:48;9.70;76.00
70762;DHT22;58360;0.000;0.000;2023-02-01T18:46:15;9.70;76.10
70762;DHT22;58360;0.000;0.000;2023-02-01T18:48:42;9.70;76.50
70762;DHT22;58360;0.000;0.000;2023-02-01T18:51:12;9.70;76.30
70762;DHT22;58360;0.000;0.000;2023-02-01T18:53:41;9.70;76.40
70762;DHT22;58360;0.000;0.000;2023-02-01T18:56:11;9.70;76.70
70762;DHT22;58360;0.000;0.000;2023-02-01T18:58:37;9.80;76.20